Time;durP1;ratioP1;P1;durP2;ratioP2;P2;SDS_P1;SDS_P2;PMS_P1;PMS_P2;Temp;Humidity;BMP_temperature;BMP_pressure;BME280_temperature;BME280_humidity;BME280_pressure;Samples;Min_cycle;Max_cycle;Signal;HPM_P1;HPM_P2
2022/01/25 00:28:41;;;;;;;59.67;31.10;;;4.40;99.90;;;;;;5068808;28;20069;-61
2022/01/25 00:31:13;;;;;;;61.30;31.55;;;4.40;99.90;;;;;;5080594;28;20100;-61
2022/01/25 00:33:42;;;;;;;60.85;29.60;;;4.50;99.90;;;;;;5062205;28;20044;-61
2022/01/25 00:36:10;;;;;;;58.65;29.85;;;4.40;99.90;;;;;;5080072;28;20040;-61
2022/01/25 00:38:36;;;;;;;60.00;30.40;;;4.50;99.90;;;;;;5080428;28;20051;-61
2022/01/25 00:41:02;;;;;;;56.05;30.35;;;4.50;99.90;;;;;;5079715;28;20047;-61
2022/01/25 00:43:28;;;;;;;60.88;31.75;;;4.50;99.90;;;;;;5079262;28;20063;-60
2022/01/25 00:45:58;;;;;;;59.13;29.67;;;4.40;99.90;;;;;;5079881;28;20051;-60
2022/01/25 00:54:01;;;;;;;60.08;31.35;;;4.50;99.90;;;;;;5079672;28;20445;-60
2022/01/25 00:56:43;;;;;;;61.90;30.42;;;4.40;99.90;;;;;;5080195;28;20029;-60
2022/01/25 00:59:11;;;;;;;60.03;31.83;;;4.40;99.90;;;;;;5061539;28;20041;-61
2022/01/25 01:01:38;;;;;;;61.70;33.45;;;4.40;99.90;;;;;;5079629;28;20434;-60
2022/01/25 01:04:05;;;;;;;57.33;30.80;;;4.40;99.90;;;;;;5079670;28;20037;-59
2022/01/25 01:06:31;;;;;;;59.78;32.65;;;4.40;99.90;;;;;;5079589;28;20037;-60
2022/01/25 01:08:57;;;;;;;64.57;33.80;;;4.40;99.90;;;;;;5061947;28;20044;-61
2022/01/25 01:11:32;;;;;;;62.50;32.47;;;4.30;99.90;;;;;;5044347;28;20044;-60
2022/01/25 01:14:12;;;;;;;58.55;32.03;;;4.40;99.90;;;;;;5079651;28;20068;-60
2022/01/25 01:31:01;;;;;;;58.10;31.13;;;4.40;99.90;;;;;;5079446;28;20044;-60
2022/01/25 01:33:44;;;;;;;64.32;32.63;;;4.30;99.90;;;;;;5067681;28;20064;-60
2022/01/25 01:43:57;;;;;;;61.45;32.63;;;4.40;99.90;;;;;;5079017;28;20127;-60
2022/01/25 01:46:44;;;;;;;62.83;32.97;;;4.30;99.90;;;;;;5078692;28;20075;-61
2022/01/25 01:49:11;;;;;;;64.88;32.95;;;4.30;99.90;;;;;;5078460;28;20108;-60
2022/01/25 01:51:42;;;;;;;55.92;30.73;;;4.30;99.90;;;;;;5079553;28;20045;-60
2022/01/25 01:54:13;;;;;;;65.40;33.75;;;4.40;99.90;;;;;;5078935;28;20110;-60
2022/01/25 01:56:41;;;;;;;65.22;32.13;;;4.30;99.90;;;;;;5079056;28;20057;-60
2022/01/25 01:59:14;;;;;;;65.47;33.42;;;4.30;99.90;;;;;;5078660;28;20050;-60
2022/01/25 02:01:41;;;;;;;61.97;31.42;;;4.30;99.90;;;;;;5078791;28;20044;-61
2022/01/25 02:04:09;;;;;;;65.05;33.60;;;4.40;99.90;;;;;;5060804;28;20070;-60
2022/01/25 02:06:35;;;;;;;60.72;30.90;;;4.30;99.90;;;;;;5078569;28;20043;-60
2022/01/25 02:09:01;;;;;;;65.32;34.75;;;4.30;99.90;;;;;;5079329;28;20041;-61
2022/01/25 02:11:27;;;;;;;62.95;32.60;;;4.40;99.90;;;;;;5076852;28;20657;-60
2022/01/25 02:13:53;;;;;;;61.95;31.50;;;4.30;99.90;;;;;;5077455;28;20465;-60
2022/01/25 02:16:39;;;;;;;63.50;33.03;;;4.30;99.90;;;;;;5078500;28;20033;-60
2022/01/25 02:24:36;;;;;;;60.97;31.20;;;4.30;99.90;;;;;;5078279;28;20056;-61
2022/01/25 02:27:02;;;;;;;63.92;32.25;;;4.30;99.90;;;;;;5077095;28;20055;-62
2022/01/25 02:29:28;;;;;;;66.85;32.83;;;4.30;99.90;;;;;;5081716;28;20043;-60
2022/01/25 02:31:55;;;;;;;65.10;33.97;;;4.30;99.90;;;;;;5081037;28;20084;-61
2022/01/25 02:34:21;;;;;;;59.63;32.65;;;4.40;99.90;;;;;;5064680;28;20035;-60
2022/01/25 02:37:01;;;;;;;66.22;33.50;;;4.30;99.90;;;;;;5081111;28;20048;-60
2022/01/25 02:39:27;;;;;;;61.53;33.10;;;4.30;99.90;;;;;;5082403;28;20490;-60
2022/01/25 02:41:54;;;;;;;61.42;32.80;;;4.30;99.90;;;;;;5082287;28;20055;-60
2022/01/25 02:44:25;;;;;;;64.32;34.38;;;4.30;99.90;;;;;;5064199;28;20048;-61
2022/01/25 02:49:19;;;;;;;67.20;33.70;;;4.30;99.90;;;;;;5081723;28;20596;-60
2022/01/25 02:51:47;;;;;;;63.58;31.65;;;4.30;99.90;;;;;;5064820;28;20048;-60
2022/01/25 02:54:15;;;;;;;61.13;31.52;;;4.40;99.90;;;;;;5063920;28;20044;-59
2022/01/25 02:56:43;;;;;;;60.92;32.83;;;4.30;99.90;;;;;;5082223;28;20036;-61
2022/01/25 02:59:10;;;;;;;62.88;32.53;;;4.30;99.90;;;;;;5082014;28;20054;-60
2022/01/25 03:01:37;;;;;;;63.33;32.92;;;4.20;99.90;;;;;;5081954;28;20032;-60
2022/01/25 03:04:05;;;;;;;66.78;33.00;;;4.30;99.90;;;;;;5064158;28;20053;-60
2022/01/25 03:06:31;;;;;;;63.65;33.60;;;4.30;99.90;;;;;;5063907;28;20444;-60
2022/01/25 03:08:58;;;;;;;64.57;34.45;;;4.40;99.90;;;;;;5082443;28;20068;-60
2022/01/25 03:11:24;;;;;;;60.03;31.05;;;4.30;99.90;;;;;;5084123;28;20036;-60
2022/01/25 03:13:57;;;;;;;65.53;32.67;;;4.40;99.90;;;;;;5083741;28;20051;-60
2022/01/25 03:16:45;;;;;;;67.00;33.47;;;4.30;99.90;;;;;;5084433;28;20149;-61
2022/01/25 03:22:01;;;;;;;60.78;31.63;;;4.40;99.90;;;;;;5084390;28;20812;-59
2022/01/25 03:24:27;;;;;;;62.03;31.88;;;4.40;99.90;;;;;;5083149;28;20505;-61
2022/01/25 03:26:52;;;;;;;61.70;32.70;;;4.40;99.90;;;;;;5101476;28;20043;-60
2022/01/25 03:29:18;;;;;;;63.90;32.63;;;4.30;99.90;;;;;;5081377;28;20066;-60
2022/01/25 03:31:44;;;;;;;62.60;33.10;;;4.40;99.90;;;;;;5063337;28;20058;-60
2022/01/25 03:34:10;;;;;;;64.15;33.80;;;4.40;99.90;;;;;;5081707;28;20044;-60
2022/01/25 03:36:36;;;;;;;65.90;31.33;;;4.40;99.90;;;;;;5081182;28;20040;-60
2022/01/25 03:39:05;;;;;;;60.42;31.85;;;4.30;99.90;;;;;;5063936;28;20048;-60
2022/01/25 03:41:31;;;;;;;64.63;34.20;;;4.40;99.90;;;;;;5080068;28;20505;-60
2022/01/25 03:43:57;;;;;;;63.17;32.47;;;4.30;99.90;;;;;;5081371;28;20040;-60
2022/01/25 03:46:33;;;;;;;69.45;35.03;;;4.40;99.90;;;;;;5062985;28;20052;-60
2022/01/25 03:51:44;;;;;;;61.00;30.80;;;4.30;99.90;;;;;;5081592;28;20128;-60
2022/01/25 03:54:10;;;;;;;67.22;35.80;;;4.30;99.90;;;;;;5080799;28;20044;-60
2022/01/25 03:56:37;;;;;;;58.75;30.88;;;4.30;99.90;;;;;;5063107;28;20075;-60
2022/01/25 03:59:05;;;;;;;59.10;31.40;;;4.20;99.90;;;;;;5062824;28;20407;-59
2022/01/25 04:01:32;;;;;;;69.25;32.83;;;4.30;99.90;;;;;;5063034;28;20228;-61
2022/01/25 04:04:01;;;;;;;67.13;33.55;;;4.30;99.90;;;;;;5063032;28;20056;-60
2022/01/25 04:06:30;;;;;;;65.68;33.75;;;4.20;99.90;;;;;;5062675;28;20102;-60
2022/01/25 04:08:58;;;;;;;65.38;33.22;;;4.30;99.90;;;;;;5081466;28;20052;-60
2022/01/25 04:11:24;;;;;;;62.85;32.70;;;4.30;99.90;;;;;;5064983;28;20044;-60
2022/01/25 04:13:52;;;;;;;59.75;31.60;;;4.30;99.90;;;;;;5101032;28;20109;-60
2022/01/25 04:16:26;;;;;;;64.07;32.95;;;4.30;99.90;;;;;;5082376;28;20048;-60
2022/01/25 04:19:07;;;;;;;68.43;35.05;;;4.30;99.90;;;;;;5100363;28;20043;-60
2022/01/25 04:26:44;;;;;;;62.65;31.90;;;4.30;99.90;;;;;;5100726;28;20059;-60
2022/01/25 04:29:10;;;;;;;65.97;32.90;;;4.20;99.90;;;;;;5080667;28;20044;-61
2022/01/25 04:31:37;;;;;;;67.85;33.38;;;4.20;99.90;;;;;;5080411;28;20051;-60
2022/01/25 04:50:02;;;;;;;69.80;35.63;;;4.40;99.90;;;;;;5079193;28;20888;-60
2022/01/25 04:52:33;;;;;;;66.75;33.38;;;4.40;99.90;;;;;;5061027;28;20059;-60
2022/01/25 04:55:37;;;;;;;65.03;34.03;;;4.30;99.90;;;;;;5045812;28;20044;-60
2022/01/25 04:57:57;;;;;;;63.53;31.63;;;4.30;99.90;;;;;;5075419;28;20075;-59
2022/01/25 05:00:25;;;;;;;61.92;29.35;;;4.30;99.90;;;;;;5080297;28;20041;-60
2022/01/25 05:02:55;;;;;;;62.75;31.60;;;4.30;99.90;;;;;;5045165;28;20116;-59
2022/01/25 05:05:39;;;;;;;67.10;34.42;;;4.30;99.90;;;;;;5079756;28;20053;-59
2022/01/25 05:10:46;;;;;;;67.40;35.28;;;4.30;99.90;;;;;;5061469;28;20060;-60
2022/01/25 05:13:35;;;;;;;65.80;32.13;;;4.30;99.90;;;;;;5082125;28;20054;-60
2022/01/25 05:18:37;;;;;;;59.08;32.08;;;4.30;99.90;;;;;;5081307;28;20066;-60
2022/01/25 05:23:47;;;;;;;64.30;33.63;;;4.40;99.90;;;;;;5099513;28;20070;-60
2022/01/25 05:26:13;;;;;;;60.45;31.38;;;4.40;99.90;;;;;;5100035;28;20039;-60
2022/01/25 05:28:40;;;;;;;60.15;32.85;;;4.40;99.90;;;;;;5083992;28;20041;-60
2022/01/25 05:31:06;;;;;;;61.72;31.42;;;4.40;99.90;;;;;;5061131;28;20040;-59
2022/01/25 05:33:31;;;;;;;59.88;31.10;;;4.20;99.90;;;;;;5079126;28;20732;-60
2022/01/25 05:35:57;;;;;;;61.35;32.08;;;4.30;99.90;;;;;;5077890;28;20084;-60
2022/01/25 05:38:23;;;;;;;61.22;32.72;;;4.30;99.90;;;;;;5044620;28;20414;-60
2022/01/25 05:40:58;;;;;;;60.75;33.50;;;4.30;99.90;;;;;;5060936;28;20077;-60
2022/01/25 05:48:36;;;;;;;62.03;33.35;;;4.30;99.90;;;;;;5077605;28;20055;-60
2022/01/25 05:51:02;;;;;;;66.38;32.88;;;4.30;99.90;;;;;;5077497;28;20037;-60
2022/01/25 05:53:28;;;;;;;65.28;31.50;;;4.30;99.90;;;;;;5060015;28;20047;-60
2022/01/25 05:55:54;;;;;;;60.47;32.70;;;4.30;99.90;;;;;;5079419;28;20123;-60
2022/01/25 05:58:21;;;;;;;63.53;32.75;;;4.30;99.90;;;;;;5077164;28;20051;-60
2022/01/25 06:00:47;;;;;;;64.97;31.33;;;4.30;99.90;;;;;;5077499;28;20096;-61
2022/01/25 06:03:12;;;;;;;63.58;32.03;;;4.30;99.90;;;;;;5078036;28;20075;-61
2022/01/25 06:05:39;;;;;;;64.72;32.30;;;4.40;99.90;;;;;;5078705;28;20064;-60
2022/01/25 06:08:05;;;;;;;61.65;32.45;;;4.40;99.90;;;;;;5078793;28;20052;-60
2022/01/25 06:10:32;;;;;;;73.82;34.88;;;4.30;99.90;;;;;;5078420;28;20051;-59
2022/01/25 06:12:58;;;;;;;64.90;33.85;;;4.30;99.90;;;;;;5095421;28;20083;-59
2022/01/25 06:15:24;;;;;;;66.97;34.05;;;4.30;99.90;;;;;;5098544;28;20028;-60
2022/01/25 06:17:50;;;;;;;63.58;33.85;;;4.30;99.90;;;;;;5099004;28;20122;-60
2022/01/25 06:20:16;;;;;;;65.93;34.15;;;4.30;99.90;;;;;;5098120;28;20048;-60
2022/01/25 06:22:42;;;;;;;64.93;34.22;;;4.30;99.90;;;;;;5094479;28;20572;-60
2022/01/25 06:25:10;;;;;;;68.00;33.45;;;4.30;99.90;;;;;;5095293;28;20040;-60
2022/01/25 06:27:40;;;;;;;64.82;31.92;;;4.30;99.90;;;;;;5088528;28;20036;-60
2022/01/25 06:30:13;;;;;;;64.82;33.20;;;4.40;99.90;;;;;;5074496;28;20540;-60
2022/01/25 06:32:39;;;;;;;62.60;32.40;;;4.30;99.90;;;;;;5073798;28;20720;-60
2022/01/25 06:35:06;;;;;;;62.63;33.47;;;4.30;99.90;;;;;;5073875;28;20075;-60
2022/01/25 06:37:32;;;;;;;65.07;34.15;;;4.30;99.90;;;;;;5075063;28;20840;-60
2022/01/25 06:39:58;;;;;;;66.88;32.65;;;4.30;99.90;;;;;;5073452;28;20048;-59
2022/01/25 06:42:28;;;;;;;66.40;32.25;;;4.40;99.90;;;;;;5075007;28;20060;-59
2022/01/25 06:44:57;;;;;;;70.85;34.75;;;4.30;99.90;;;;;;5075125;28;20044;-60
2022/01/25 06:47:23;;;;;;;67.93;33.67;;;4.30;99.90;;;;;;5057753;28;20110;-60
2022/01/25 06:49:49;;;;;;;67.53;33.35;;;4.50;99.90;;;;;;5056358;28;20041;-59
2022/01/25 06:52:14;;;;;;;67.07;34.00;;;4.30;99.90;;;;;;5024194;28;20043;-59
2022/01/25 06:54:40;;;;;;;67.03;33.20;;;4.30;99.90;;;;;;5074830;28;20103;-60
2022/01/25 06:57:07;;;;;;;64.63;35.03;;;4.30;99.90;;;;;;5039762;28;20053;-59
2022/01/25 06:59:33;;;;;;;67.28;32.97;;;4.30;99.90;;;;;;5074386;28;20051;-60
2022/01/25 07:01:58;;;;;;;63.15;33.80;;;4.30;99.90;;;;;;5074683;28;20060;-59
2022/01/25 07:04:24;;;;;;;62.65;33.20;;;4.30;99.90;;;;;;5075260;28;20048;-59
2022/01/25 07:06:50;;;;;;;64.75;32.75;;;4.30;99.90;;;;;;5074587;28;20107;-59
2022/01/25 07:09:16;;;;;;;67.18;32.50;;;4.30;99.90;;;;;;5075140;28;20053;-59
2022/01/25 07:11:41;;;;;;;66.82;33.03;;;4.30;99.90;;;;;;5039627;28;20037;-59
2022/01/25 07:14:07;;;;;;;65.25;31.48;;;4.20;99.90;;;;;;5056631;28;20079;-59
2022/01/25 07:16:33;;;;;;;67.97;33.55;;;4.30;99.90;;;;;;5077436;28;20082;-59
2022/01/25 07:18:59;;;;;;;63.70;32.13;;;4.30;99.90;;;;;;5078098;28;20052;-59
2022/01/25 07:21:24;;;;;;;65.70;33.33;;;4.30;99.90;;;;;;5078371;28;20045;-58
2022/01/25 07:23:50;;;;;;;68.45;33.60;;;4.30;99.90;;;;;;5077709;28;20044;-59
2022/01/25 07:26:16;;;;;;;62.83;32.30;;;4.30;99.90;;;;;;5060785;28;20531;-59
2022/01/25 07:28:42;;;;;;;66.00;33.13;;;4.20;99.90;;;;;;5077874;28;20135;-59
2022/01/25 07:31:07;;;;;;;66.95;34.55;;;4.30;99.90;;;;;;5043288;28;20040;-59
2022/01/25 07:33:33;;;;;;;69.05;33.67;;;4.20;99.90;;;;;;5059708;28;20124;-58
2022/01/25 07:35:58;;;;;;;69.32;36.47;;;4.20;99.90;;;;;;5077792;28;20048;-58
2022/01/25 07:38:24;;;;;;;69.63;34.17;;;4.10;99.90;;;;;;5060584;28;20083;-59
2022/01/25 07:40:50;;;;;;;64.35;32.45;;;4.20;99.90;;;;;;5059662;28;20056;-60
2022/01/25 07:43:16;;;;;;;72.38;34.45;;;4.30;99.90;;;;;;5072984;28;20076;-59
2022/01/25 07:45:42;;;;;;;68.50;34.28;;;4.30;99.90;;;;;;5067550;28;20045;-60
2022/01/25 07:48:10;;;;;;;70.90;34.72;;;4.20;99.90;;;;;;5063834;28;20055;-59
2022/01/25 07:50:36;;;;;;;68.78;34.15;;;4.20;99.90;;;;;;5075307;28;20055;-59
2022/01/25 07:53:03;;;;;;;67.32;35.58;;;4.20;99.90;;;;;;5077686;28;20036;-59
2022/01/25 07:55:29;;;;;;;69.07;34.72;;;4.20;99.90;;;;;;5076857;28;20048;-59
2022/01/25 07:57:54;;;;;;;73.22;36.90;;;4.70;99.90;;;;;;5075937;28;21119;-59
2022/01/25 08:00:21;;;;;;;67.07;34.42;;;4.20;99.90;;;;;;5078482;28;20044;-59
2022/01/25 08:02:47;;;;;;;73.07;36.03;;;4.30;99.90;;;;;;5075947;28;20037;-59
2022/01/25 08:05:18;;;;;;;69.90;34.03;;;4.20;99.90;;;;;;5077712;28;20119;-60
2022/01/25 08:07:44;;;;;;;69.90;34.35;;;4.30;99.90;;;;;;5077265;28;20071;-60
2022/01/25 08:10:10;;;;;;;67.20;33.58;;;4.30;99.90;;;;;;5075642;28;20053;-58
2022/01/25 08:12:36;;;;;;;69.43;36.45;;;4.20;99.90;;;;;;5071480;28;20133;-59
2022/01/25 08:15:05;;;;;;;68.05;34.13;;;4.20;99.90;;;;;;5097414;28;20044;-59
2022/01/25 08:17:31;;;;;;;71.40;34.45;;;4.30;99.90;;;;;;5098228;28;20040;-59
2022/01/25 08:19:56;;;;;;;66.05;32.63;;;4.30;99.90;;;;;;5096307;28;20063;-59
2022/01/25 08:22:24;;;;;;;65.93;34.83;;;4.20;99.90;;;;;;5095559;28;20050;-59
2022/01/25 08:24:50;;;;;;;64.47;32.33;;;4.30;99.90;;;;;;5079002;28;20044;-59
2022/01/25 08:27:19;;;;;;;70.32;34.67;;;4.30;99.90;;;;;;5089938;28;20059;-59
2022/01/25 08:29:46;;;;;;;76.10;35.50;;;4.30;99.90;;;;;;5077569;28;20049;-59
2022/01/25 08:32:12;;;;;;;72.15;34.97;;;4.30;99.90;;;;;;5076910;28;20076;-59
2022/01/25 08:34:38;;;;;;;75.80;34.22;;;4.30;99.90;;;;;;5059074;28;20044;-59
2022/01/25 08:37:05;;;;;;;74.07;35.08;;;4.40;99.90;;;;;;5076555;28;20055;-59
2022/01/25 08:39:31;;;;;;;66.40;34.95;;;4.20;99.90;;;;;;5075682;28;20049;-60
2022/01/25 08:41:57;;;;;;;72.53;34.13;;;4.30;99.90;;;;;;5075268;28;20522;-59
2022/01/25 08:44:23;;;;;;;68.15;34.15;;;4.30;99.90;;;;;;5076674;28;20058;-60
2022/01/25 08:46:48;;;;;;;68.65;36.38;;;4.30;99.90;;;;;;5075276;28;20132;-60
2022/01/25 08:49:14;;;;;;;69.95;33.85;;;4.20;99.90;;;;;;5076197;28;20071;-60
2022/01/25 08:51:40;;;;;;;65.75;33.05;;;4.20;99.90;;;;;;5077268;28;20238;-60
2022/01/25 08:54:06;;;;;;;70.75;37.00;;;4.30;99.90;;;;;;5076412;28;20044;-60
2022/01/25 08:56:32;;;;;;;64.22;31.80;;;4.30;99.90;;;;;;5075177;28;20159;-60
2022/01/25 08:58:58;;;;;;;72.10;36.45;;;4.40;99.90;;;;;;5074692;28;20048;-60
2022/01/25 09:01:25;;;;;;;73.07;34.78;;;4.40;99.90;;;;;;5058404;28;20041;-60
2022/01/25 09:03:51;;;;;;;72.57;36.70;;;4.40;99.90;;;;;;5076729;28;20048;-60
2022/01/25 09:06:18;;;;;;;67.82;34.15;;;4.50;99.90;;;;;;5076099;28;20079;-59
2022/01/25 09:08:44;;;;;;;74.97;35.08;;;4.40;99.90;;;;;;5075595;28;20048;-60
2022/01/25 09:11:09;;;;;;;67.53;34.45;;;4.50;99.90;;;;;;5074382;28;20075;-60
2022/01/25 09:13:35;;;;;;;71.45;35.20;;;4.50;99.90;;;;;;5096558;28;20047;-60
2022/01/25 09:16:02;;;;;;;68.57;34.47;;;4.50;99.90;;;;;;5094956;28;20051;-59
2022/01/25 09:18:28;;;;;;;72.78;35.13;;;4.40;99.90;;;;;;5096419;28;20040;-60
2022/01/25 09:20:55;;;;;;;66.32;33.38;;;4.40;99.90;;;;;;5096128;28;20079;-59
2022/01/25 09:23:23;;;;;;;76.72;36.50;;;4.50;99.90;;;;;;5095853;28;20086;-60
2022/01/25 09:25:49;;;;;;;72.30;34.83;;;4.50;99.90;;;;;;5095528;28;20046;-60
2022/01/25 09:28:16;;;;;;;70.07;34.58;;;4.40;99.90;;;;;;5082870;28;20048;-59
2022/01/25 09:30:42;;;;;;;72.10;35.08;;;4.40;99.90;;;;;;5074551;28;20044;-60
2022/01/25 09:33:08;;;;;;;69.05;36.58;;;4.50;99.90;;;;;;5057409;28;20048;-60
2022/01/25 09:35:34;;;;;;;69.95;34.67;;;4.50;99.90;;;;;;5075349;28;20055;-60
2022/01/25 09:38:00;;;;;;;67.97;33.45;;;4.50;99.90;;;;;;5073873;28;20059;-60
2022/01/25 09:40:26;;;;;;;70.57;35.17;;;4.50;99.90;;;;;;5075880;28;20044;-60
2022/01/25 09:42:55;;;;;;;70.80;36.40;;;4.50;99.90;;;;;;5076306;28;20349;-60
2022/01/25 09:45:21;;;;;;;71.03;34.35;;;4.50;99.90;;;;;;5075346;28;20052;-60
2022/01/25 09:47:48;;;;;;;71.60;34.40;;;4.40;99.90;;;;;;5075400;28;20044;-60
2022/01/25 09:50:14;;;;;;;78.05;36.78;;;4.30;99.90;;;;;;5075276;28;20076;-60
2022/01/25 09:52:44;;;;;;;67.88;35.20;;;4.50;99.90;;;;;;5057521;28;20062;-60
2022/01/25 09:55:19;;;;;;;73.20;34.78;;;4.40;99.90;;;;;;5075469;28;20056;-60
2022/01/25 09:57:44;;;;;;;72.50;35.70;;;4.40;99.90;;;;;;5056692;28;20059;-60
2022/01/25 10:00:14;;;;;;;71.75;36.67;;;4.40;99.90;;;;;;5057962;28;20044;-60
2022/01/25 10:02:50;;;;;;;70.22;34.25;;;4.40;99.90;;;;;;5057050;28;20096;-60
2022/01/25 10:05:27;;;;;;;69.55;34.83;;;5.00;99.90;;;;;;5075763;28;20044;-60
2022/01/25 10:08:10;;;;;;;72.38;35.03;;;4.50;99.90;;;;;;5058182;28;20048;-60
2022/01/25 10:10:47;;;;;;;73.63;34.38;;;4.50;99.90;;;;;;5056466;28;20072;-60
2022/01/25 10:13:20;;;;;;;72.82;35.10;;;4.50;99.90;;;;;;5075406;28;20047;-60
2022/01/25 10:15:48;;;;;;;71.70;35.70;;;4.40;99.90;;;;;;5075003;28;20094;-60
2022/01/25 10:18:15;;;;;;;73.53;36.17;;;4.50;99.90;;;;;;5075150;28;20040;-60
2022/01/25 10:20:43;;;;;;;78.25;35.88;;;4.50;99.90;;;;;;5056805;28;20056;-60
2022/01/25 10:23:14;;;;;;;76.18;36.60;;;4.40;99.90;;;;;;5074864;28;20075;-60
2022/01/25 10:25:46;;;;;;;80.07;38.60;;;4.40;99.90;;;;;;5076243;28;20049;-60
2022/01/25 10:28:14;;;;;;;79.43;37.72;;;4.40;99.90;;;;;;5076117;28;20084;-60
2022/01/25 10:30:50;;;;;;;74.55;36.05;;;4.40;99.90;;;;;;5060373;28;20049;-60
2022/01/25 10:33:50;;;;;;;76.07;37.15;;;4.30;99.90;;;;;;5078172;28;20052;-60
2022/01/25 10:36:22;;;;;;;76.68;36.83;;;4.40;99.90;;;;;;5056243;28;20477;-60
2022/01/25 10:38:50;;;;;;;73.17;36.00;;;4.40;99.90;;;;;;5060854;28;20061;-60
2022/01/25 10:41:22;;;;;;;75.30;37.45;;;4.50;99.90;;;;;;5077829;28;20072;-60
2022/01/25 10:43:49;;;;;;;80.22;36.85;;;4.50;99.90;;;;;;5078327;28;20060;-60
2022/01/25 10:46:25;;;;;;;77.82;37.15;;;4.40;99.90;;;;;;5077843;28;20608;-59
2022/01/25 10:49:02;;;;;;;74.78;36.97;;;4.50;99.90;;;;;;5060380;28;20056;-60
2022/01/25 10:51:32;;;;;;;81.22;37.55;;;4.40;99.90;;;;;;5064669;28;20040;-59
2022/01/25 10:54:03;;;;;;;77.03;37.88;;;4.40;99.90;;;;;;5063500;28;20052;-60
2022/01/25 10:56:57;;;;;;;77.88;38.38;;;4.40;99.90;;;;;;5081861;28;20045;-60
2022/01/25 10:59:29;;;;;;;83.78;37.15;;;4.40;99.90;;;;;;5061150;28;20071;-59
2022/01/25 11:01:59;;;;;;;;;;;4.50;99.90;;;;;;5063968;28;20044;-61
2022/01/25 11:04:31;;;;;;;73.97;35.13;;;4.50;99.90;;;;;;5064549;28;20003;-60
2022/01/25 11:06:59;;;;;;;;;;;4.50;99.90;;;;;;5063691;28;20052;-60
2022/01/25 11:09:27;;;;;;;75.32;35.75;;;4.50;99.90;;;;;;5063750;28;19924;-60
2022/01/25 11:11:57;;;;;;;81.72;37.92;;;4.40;99.90;;;;;;5063324;28;20567;-60
2022/01/25 11:17:07;;;;;;;80.32;37.35;;;4.40;99.90;;;;;;5082131;28;20052;-59
2022/01/25 11:19:33;;;;;;;76.85;36.53;;;4.40;99.90;;;;;;5062427;28;20048;-60
2022/01/25 11:21:59;;;;;;;78.47;36.30;;;4.40;99.90;;;;;;5081761;28;20135;-60
2022/01/25 11:24:29;;;;;;;78.20;35.83;;;4.40;99.90;;;;;;5063579;28;20051;-60
2022/01/25 11:26:55;;;;;;;74.57;35.50;;;4.40;99.90;;;;;;5046746;28;20041;-60
2022/01/25 11:29:21;;;;;;;72.20;34.30;;;4.50;99.90;;;;;;5081361;28;20048;-59
2022/01/25 11:31:51;;;;;;;75.60;36.58;;;4.40;99.90;;;;;;5080970;28;20052;-60
2022/01/25 11:34:18;;;;;;;80.80;36.03;;;4.30;99.90;;;;;;5081672;28;20049;-59
2022/01/25 11:36:56;;;;;;;76.82;36.47;;;4.30;99.90;;;;;;5080975;28;20055;-59
2022/01/25 11:39:25;;;;;;;80.85;38.30;;;4.40;99.90;;;;;;5063392;28;20048;-60
2022/01/25 11:42:00;;;;;;;78.57;37.97;;;4.40;99.90;;;;;;5062713;28;20053;-60
2022/01/25 11:44:26;;;;;;;76.35;37.30;;;4.40;99.90;;;;;;5080779;28;20054;-60
2022/01/25 11:47:09;;;;;;;79.78;37.97;;;4.50;99.90;;;;;;5063446;28;20082;-59
2022/01/25 11:49:55;;;;;;;78.78;37.67;;;4.40;99.90;;;;;;5079061;28;20036;-60
2022/01/25 11:52:24;;;;;;;79.35;37.15;;;4.40;99.90;;;;;;5061897;28;20040;-60
2022/01/25 11:54:52;;;;;;;78.32;35.95;;;4.40;99.90;;;;;;5062693;28;20033;-60
2022/01/25 11:57:27;;;;;;;74.85;36.95;;;4.50;99.90;;;;;;5080061;28;20051;-60
2022/01/25 11:59:58;;;;;;;75.28;35.53;;;4.50;99.90;;;;;;5059718;28;20087;-60
2022/01/25 12:02:40;;;;;;;73.47;36.63;;;4.40;99.90;;;;;;5060865;28;20074;-60
2022/01/25 12:05:15;;;;;;;78.82;36.50;;;4.50;99.90;;;;;;5078601;28;20053;-60
2022/01/25 12:08:05;;;;;;;80.10;36.35;;;4.40;99.90;;;;;;5080887;28;20418;-60
2022/01/25 12:10:39;;;;;;;80.93;37.70;;;4.30;99.90;;;;;;5062309;28;20041;-60
2022/01/25 12:13:20;;;;;;;77.72;35.95;;;4.20;99.90;;;;;;5081347;28;20132;-60
2022/01/25 12:16:06;;;;;;;81.72;37.83;;;4.40;99.90;;;;;;5080565;28;20053;-60
2022/01/25 12:19:03;;;;;;;74.95;34.58;;;4.40;99.90;;;;;;5079867;28;20068;-60
2022/01/25 12:21:51;;;;;;;78.40;36.97;;;4.40;99.90;;;;;;5064123;28;20064;-60
2022/01/25 12:24:19;;;;;;;76.07;36.20;;;4.50;99.90;;;;;;5080138;28;20756;-60
2022/01/25 12:27:29;;;;;;;80.30;37.28;;;4.60;99.90;;;;;;5080289;28;20048;-60
2022/01/25 12:30:11;;;;;;;72.60;35.75;;;4.60;99.90;;;;;;5059567;28;20045;-60
2022/01/25 12:33:20;;;;;;;78.22;36.95;;;4.50;99.90;;;;;;5059976;28;20155;-60
2022/01/25 12:35:47;;;;;;;73.90;39.20;;;4.60;99.90;;;;;;5059969;28;20041;-59
2022/01/25 12:38:19;;;;;;;77.40;34.80;;;4.50;99.90;;;;;;5042328;28;20045;-60
2022/01/25 12:40:53;;;;;;;74.38;33.67;;;4.50;99.90;;;;;;5059832;28;20045;-60
2022/01/25 12:43:21;;;;;;;72.78;35.63;;;4.50;99.90;;;;;;5056323;28;20076;-60
2022/01/25 12:46:18;;;;;;;74.28;35.03;;;4.50;99.90;;;;;;5079848;28;20091;-60
2022/01/25 12:49:07;;;;;;;79.55;35.20;;;4.60;99.90;;;;;;5061143;28;20764;-59
2022/01/25 12:51:37;;;;;;;77.70;37.75;;;4.40;99.90;;;;;;5078818;28;20036;-59
2022/01/25 12:54:07;;;;;;;74.28;36.78;;;4.40;99.90;;;;;;5079567;28;20051;-59
2022/01/25 12:56:36;;;;;;;76.22;37.38;;;4.50;99.90;;;;;;5079714;28;20104;-59
2022/01/25 12:59:09;;;;;;;73.82;36.33;;;4.50;99.90;;;;;;5079444;28;20044;-59
2022/01/25 13:01:37;;;;;;;71.70;35.03;;;4.60;99.90;;;;;;5079289;28;20044;-60
2022/01/25 13:04:05;;;;;;;76.97;37.35;;;4.40;99.90;;;;;;5078832;28;20091;-59
2022/01/25 13:06:38;;;;;;;82.45;37.58;;;4.50;99.90;;;;;;5078908;28;20044;-59
2022/01/25 13:09:14;;;;;;;70.10;34.92;;;4.50;99.90;;;;;;5079231;28;20052;-60
2022/01/25 13:17:14;;;;;;;76.60;37.70;;;4.40;99.90;;;;;;5079418;28;20080;-60
2022/01/25 13:19:49;;;;;;;75.78;34.55;;;4.40;99.90;;;;;;5069742;28;20044;-59
2022/01/25 13:22:21;;;;;;;77.03;36.88;;;4.40;99.90;;;;;;5071261;28;20078;-58
2022/01/25 13:27:35;;;;;;;75.55;35.25;;;4.40;99.90;;;;;;5070889;28;20056;-59
2022/01/25 13:32:51;;;;;;;79.05;35.53;;;4.30;99.90;;;;;;5070864;28;20037;-60
2022/01/25 13:35:31;;;;;;;78.97;34.78;;;4.20;99.90;;;;;;5070969;28;20040;-59
2022/01/25 13:38:04;;;;;;;74.32;35.15;;;4.20;99.90;;;;;;5070999;28;20040;-61
2022/01/25 13:40:52;;;;;;;73.65;35.20;;;4.10;99.90;;;;;;5070103;28;20051;-60
2022/01/25 13:46:26;;;;;;;70.20;32.72;;;4.20;99.90;;;;;;5090846;28;21099;-61
2022/01/25 13:48:55;;;;;;;76.93;34.78;;;4.20;99.90;;;;;;5090324;28;20090;-60
2022/01/25 13:51:23;;;;;;;76.22;34.97;;;4.20;99.90;;;;;;5090874;28;20075;-62
2022/01/25 13:53:58;;;;;;;77.25;37.88;;;4.20;99.90;;;;;;5055587;28;20044;-62
2022/01/25 13:56:30;;;;;;;78.13;36.63;;;4.10;99.90;;;;;;5091189;28;20069;-58
2022/01/25 13:58:56;;;;;;;76.05;36.00;;;4.30;99.90;;;;;;5090529;28;20054;-57
2022/01/25 14:01:24;;;;;;;75.50;34.88;;;4.40;99.90;;;;;;5090815;28;20056;-58
2022/01/25 14:04:07;;;;;;;80.10;37.20;;;4.30;99.90;;;;;;5073277;28;20378;-57
2022/01/25 14:06:43;;;;;;;;;;;4.40;99.90;;;;;;5072571;28;20044;-57
2022/01/25 14:09:21;;;;;;;74.80;34.67;;;4.30;99.90;;;;;;5090243;28;20899;-58
2022/01/25 14:25:40;;;;;;;80.20;35.08;;;4.30;99.90;;;;;;5061450;28;20051;-59
2022/01/25 14:28:10;;;;;;;80.28;36.90;;;4.30;99.90;;;;;;5096393;28;20095;-58
2022/01/25 14:30:39;;;;;;;78.50;34.97;;;4.30;99.90;;;;;;5096506;28;20059;-57
2022/01/25 14:33:11;;;;;;;78.75;35.95;;;4.10;99.90;;;;;;5096432;28;20093;-58
2022/01/25 14:35:42;;;;;;;74.57;36.30;;;4.10;99.90;;;;;;5096440;28;20044;-58
2022/01/25 14:38:23;;;;;;;78.53;34.97;;;4.10;99.90;;;;;;5097746;28;20068;-58
2022/01/25 14:41:12;;;;;;;76.93;35.15;;;4.00;99.90;;;;;;5097107;28;20048;-59
2022/01/25 14:43:50;;;;;;;77.88;34.53;;;4.00;99.90;;;;;;5075218;28;20116;-58
2022/01/25 14:46:25;;;;;;;79.95;36.92;;;4.60;99.90;;;;;;5075581;28;20075;-58
2022/01/25 14:49:00;;;;;;;78.22;36.15;;;4.10;99.90;;;;;;5059312;28;20056;-58
2022/01/25 14:51:41;;;;;;;78.50;35.67;;;4.00;99.90;;;;;;5077427;28;20513;-58
2022/01/25 14:54:09;;;;;;;82.13;36.25;;;4.10;99.90;;;;;;5075312;28;20048;-58
2022/01/25 14:56:46;;;;;;;80.43;37.88;;;4.10;99.90;;;;;;5075164;28;20521;-58
2022/01/25 14:59:25;;;;;;;76.32;36.33;;;4.10;99.90;;;;;;5074888;28;20047;-58
2022/01/25 15:02:09;;;;;;;73.13;34.95;;;4.10;99.90;;;;;;5076369;28;20054;-58
2022/01/25 15:04:39;;;;;;;82.20;35.67;;;4.20;99.90;;;;;;5077062;28;20079;-58
2022/01/25 15:07:13;;;;;;;77.72;35.10;;;4.20;99.90;;;;;;5075668;28;20044;-58